sensor_id;sensor_type;location;lat;lon;timestamp;pressure;altitude;pressure_sealevel;temperature;humidity
21902;BME280;11115;46.038;14.612;2023-04-01T00:01:48;97283.19;;;8.50;100.00
21902;BME280;11115;46.038;14.612;2023-04-01T00:04:27;97285.28;;;8.36;100.00
21902;BME280;11115;46.038;14.612;2023-04-01T00:07:01;97261.75;;;8.30;100.00
21902;BME280;11115;46.038;14.612;2023-04-01T00:09:32;97277.47;;;8.47;100.00
21902;BME280;11115;46.038;14.612;2023-04-01T00:12:15;97273.09;;;8.46;100.00
21902;BME280;11115;46.038;14.612;2023-04-01T00:15:01;97270.84;;;8.39;100.00
21902;BME280;11115;46.038;14.612;2023-04-01T00:17:39;97271.66;;;8.48;100.00
21902;BME280;11115;46.038;14.612;2023-04-01T00:20:16;97251.06;;;8.37;100.00
21902;BME280;11115;46.038;14.612;2023-04-01T00:22:55;97250.41;;;8.40;100.00
21902;BME280;11115;46.038;14.612;2023-04-01T00:25:41;97240.19;;;8.32;100.00
21902;BME280;11115;46.038;14.612;2023-04-01T00:28:22;97237.75;;;8.22;100.00
21902;BME280;11115;46.038;14.612;2023-04-01T00:30:55;97227.22;;;8.15;100.00
21902;BME280;11115;46.038;14.612;2023-04-01T00:33:26;97191.25;;;8.03;100.00
21902;BME280;11115;46.038;14.612;2023-04-01T00:36:16;97213.94;;;8.17;100.00
21902;BME280;11115;46.038;14.612;2023-04-01T00:38:51;97221.38;;;8.08;100.00
21902;BME280;11115;46.038;14.612;2023-04-01T00:41:25;97216.19;;;8.15;100.00
21902;BME280;11115;46.038;14.612;2023-04-01T00:44:17;97201.44;;;8.03;100.00
21902;BME280;11115;46.038;14.612;2023-04-01T00:46:51;97186.69;;;7.99;100.00
21902;BME280;11115;46.038;14.612;2023-04-01T00:49:37;97185.75;;;7.95;100.00
21902;BME280;11115;46.038;14.612;2023-04-01T00:52:10;97177.47;;;7.77;100.00
21902;BME280;11115;46.038;14.612;2023-04-01T00:54:50;97190.56;;;7.72;100.00
21902;BME280;11115;46.038;14.612;2023-04-01T00:57:51;97203.81;;;7.70;100.00
21902;BME280;11115;46.038;14.612;2023-04-01T01:00:35;97210.47;;;7.69;100.00
21902;BME280;11115;46.038;14.612;2023-04-01T01:03:16;97195.72;;;7.56;100.00
21902;BME280;11115;46.038;14.612;2023-04-01T01:15:06;97181.88;;;7.30;100.00
21902;BME280;11115;46.038;14.612;2023-04-01T01:27:11;97204.31;;;7.54;100.00
21902;BME280;11115;46.038;14.612;2023-04-01T01:33:17;97205.94;;;6.76;100.00
21902;BME280;11115;46.038;14.612;2023-04-01T01:36:02;97199.66;;;6.84;100.00
21902;BME280;11115;46.038;14.612;2023-04-01T01:38:41;97210.09;;;6.96;100.00
21902;BME280;11115;46.038;14.612;2023-04-01T01:41:25;97220.16;;;7.09;100.00
21902;BME280;11115;46.038;14.612;2023-04-01T01:43:57;97238.41;;;7.05;100.00
21902;BME280;11115;46.038;14.612;2023-04-01T01:46:45;97236.53;;;6.83;100.00
21902;BME280;11115;46.038;14.612;2023-04-01T01:49:25;97230.06;;;6.57;100.00
21902;BME280;11115;46.038;14.612;2023-04-01T01:51:59;97238.03;;;6.67;100.00
21902;BME280;11115;46.038;14.612;2023-04-01T01:54:33;97224.91;;;6.86;100.00
21902;BME280;11115;46.038;14.612;2023-04-01T01:57:12;97246.31;;;6.98;100.00
21902;BME280;11115;46.038;14.612;2023-04-01T01:59:59;97249.38;;;6.96;100.00
21902;BME280;11115;46.038;14.612;2023-04-01T02:02:53;97247.75;;;6.95;100.00
21902;BME280;11115;46.038;14.612;2023-04-01T02:05:28;97248.44;;;7.01;100.00
21902;BME280;11115;46.038;14.612;2023-04-01T02:08:37;97254.84;;;7.27;100.00
21902;BME280;11115;46.038;14.612;2023-04-01T02:11:13;97241.91;;;7.28;100.00
21902;BME280;11115;46.038;14.612;2023-04-01T02:14:21;97261.84;;;7.34;100.00
21902;BME280;11115;46.038;14.612;2023-04-01T02:17:05;97260.75;;;7.43;100.00
21902;BME280;11115;46.038;14.612;2023-04-01T02:20:15;97268.03;;;7.39;100.00
21902;BME280;11115;46.038;14.612;2023-04-01T02:22:54;97266.41;;;7.47;100.00
21902;BME280;11115;46.038;14.612;2023-04-01T02:25:47;97269.81;;;7.44;100.00
21902;BME280;11115;46.038;14.612;2023-04-01T02:28:20;97262.19;;;7.41;100.00
21902;BME280;11115;46.038;14.612;2023-04-01T02:30:53;97262.69;;;7.43;100.00
21902;BME280;11115;46.038;14.612;2023-04-01T02:33:25;97263.47;;;7.35;100.00
21902;BME280;11115;46.038;14.612;2023-04-01T02:35:58;97249.91;;;7.38;100.00
21902;BME280;11115;46.038;14.612;2023-04-01T02:38:28;97270.66;;;7.53;100.00
21902;BME280;11115;46.038;14.612;2023-04-01T02:41:00;97255.25;;;7.52;100.00
21902;BME280;11115;46.038;14.612;2023-04-01T02:43:35;97251.41;;;7.53;100.00
21902;BME280;11115;46.038;14.612;2023-04-01T02:46:18;97241.41;;;7.26;100.00
21902;BME280;11115;46.038;14.612;2023-04-01T02:48:49;97245.28;;;7.16;100.00
21902;BME280;11115;46.038;14.612;2023-04-01T02:51:22;97230.03;;;7.10;100.00
21902;BME280;11115;46.038;14.612;2023-04-01T02:53:52;97240.59;;;7.17;100.00
21902;BME280;11115;46.038;14.612;2023-04-01T02:56:23;97231.78;;;7.06;100.00
21902;BME280;11115;46.038;14.612;2023-04-01T02:58:54;97230.94;;;6.97;100.00
21902;BME280;11115;46.038;14.612;2023-04-01T03:01:25;97244.38;;;6.98;100.00
21902;BME280;11115;46.038;14.612;2023-04-01T03:03:56;97241.75;;;6.93;100.00
21902;BME280;11115;46.038;14.612;2023-04-01T03:06:26;97238.16;;;6.84;100.00
21902;BME280;11115;46.038;14.612;2023-04-01T03:08:57;97234.22;;;6.54;100.00
21902;BME280;11115;46.038;14.612;2023-04-01T03:11:39;97219.81;;;6.26;100.00
21902;BME280;11115;46.038;14.612;2023-04-01T03:14:11;97232.25;;;6.46;100.00
21902;BME280;11115;46.038;14.612;2023-04-01T03:16:44;97236.25;;;6.40;100.00
21902;BME280;11115;46.038;14.612;2023-04-01T03:19:15;97236.44;;;6.44;100.00
21902;BME280;11115;46.038;14.612;2023-04-01T03:21:47;97241.44;;;6.42;100.00
21902;BME280;11115;46.038;14.612;2023-04-01T03:24:19;97204.78;;;6.24;100.00
21902;BME280;11115;46.038;14.612;2023-04-01T03:26:55;97217.75;;;6.32;100.00
21902;BME280;11115;46.038;14.612;2023-04-01T03:29:27;97228.38;;;6.47;100.00
21902;BME280;11115;46.038;14.612;2023-04-01T03:32:10;97243.28;;;6.32;100.00
21902;BME280;11115;46.038;14.612;2023-04-01T03:34:55;97230.84;;;6.13;100.00
21902;BME280;11115;46.038;14.612;2023-04-01T03:37:28;97218.34;;;6.20;100.00
21902;BME280;11115;46.038;14.612;2023-04-01T03:40:08;97220.84;;;5.94;100.00
21902;BME280;11115;46.038;14.612;2023-04-01T03:42:47;97225.72;;;5.97;100.00
21902;BME280;11115;46.038;14.612;2023-04-01T03:45:25;97234.59;;;6.17;100.00
21902;BME280;11115;46.038;14.612;2023-04-01T03:47:55;97229.94;;;6.17;100.00
21902;BME280;11115;46.038;14.612;2023-04-01T03:50:30;97230.19;;;6.29;100.00
21902;BME280;11115;46.038;14.612;2023-04-01T03:53:01;97231.75;;;6.22;100.00
21902;BME280;11115;46.038;14.612;2023-04-01T03:55:32;97229.66;;;6.05;100.00
21902;BME280;11115;46.038;14.612;2023-04-01T03:58:09;97233.66;;;5.85;100.00
21902;BME280;11115;46.038;14.612;2023-04-01T04:00:40;97243.09;;;6.06;100.00
21902;BME280;11115;46.038;14.612;2023-04-01T04:03:11;97236.41;;;5.99;100.00
21902;BME280;11115;46.038;14.612;2023-04-01T04:05:47;97234.66;;;5.89;100.00
21902;BME280;11115;46.038;14.612;2023-04-01T04:08:17;97232.84;;;5.98;100.00
21902;BME280;11115;46.038;14.612;2023-04-01T04:10:55;97213.31;;;5.86;100.00
21902;BME280;11115;46.038;14.612;2023-04-01T04:13:28;97243.59;;;6.08;100.00
21902;BME280;11115;46.038;14.612;2023-04-01T04:16:03;97234.72;;;6.12;100.00
21902;BME280;11115;46.038;14.612;2023-04-01T04:18:58;97240.72;;;6.14;100.00
21902;BME280;11115;46.038;14.612;2023-04-01T04:21:30;97253.72;;;6.22;100.00
21902;BME280;11115;46.038;14.612;2023-04-01T04:24:03;97253.66;;;6.35;100.00
21902;BME280;11115;46.038;14.612;2023-04-01T04:26:58;97265.44;;;6.36;100.00
21902;BME280;11115;46.038;14.612;2023-04-01T04:29:29;97263.28;;;6.47;100.00
21902;BME280;11115;46.038;14.612;2023-04-01T04:32:02;97262.69;;;6.36;100.00
21902;BME280;11115;46.038;14.612;2023-04-01T04:34:37;97262.34;;;6.51;100.00
21902;BME280;11115;46.038;14.612;2023-04-01T04:37:22;97269.84;;;6.59;100.00
21902;BME280;11115;46.038;14.612;2023-04-01T04:39:54;97275.97;;;6.56;100.00
21902;BME280;11115;46.038;14.612;2023-04-01T04:42:27;97270.56;;;6.74;100.00
21902;BME280;11115;46.038;14.612;2023-04-01T04:45:03;97266.59;;;6.57;100.00
21902;BME280;11115;46.038;14.612;2023-04-01T04:47:48;97273.28;;;6.65;100.00
21902;BME280;11115;46.038;14.612;2023-04-01T04:50:23;97267.59;;;6.61;100.00
21902;BME280;11115;46.038;14.612;2023-04-01T04:53:17;97300.44;;;6.66;100.00
21902;BME280;11115;46.038;14.612;2023-04-01T04:55:49;97294.81;;;6.72;100.00
21902;BME280;11115;46.038;14.612;2023-04-01T04:58:36;97296.38;;;6.86;100.00
21902;BME280;11115;46.038;14.612;2023-04-01T05:01:13;97291.53;;;6.92;100.00
21902;BME280;11115;46.038;14.612;2023-04-01T05:03:49;97265.88;;;6.96;100.00
21902;BME280;11115;46.038;14.612;2023-04-01T05:06:21;97292.09;;;7.03;100.00
21902;BME280;11115;46.038;14.612;2023-04-01T05:08:53;97299.38;;;6.98;100.00
21902;BME280;11115;46.038;14.612;2023-04-01T05:11:26;97296.19;;;6.83;100.00
21902;BME280;11115;46.038;14.612;2023-04-01T05:14:00;97297.81;;;6.84;100.00
21902;BME280;11115;46.038;14.612;2023-04-01T05:16:33;97284.31;;;6.74;100.00
21902;BME280;11115;46.038;14.612;2023-04-01T05:19:05;97293.75;;;6.81;100.00
21902;BME280;11115;46.038;14.612;2023-04-01T05:21:34;97297.69;;;6.89;100.00
21902;BME280;11115;46.038;14.612;2023-04-01T05:24:08;97296.94;;;6.97;100.00
21902;BME280;11115;46.038;14.612;2023-04-01T05:26:47;97292.50;;;6.87;100.00
21902;BME280;11115;46.038;14.612;2023-04-01T05:29:32;97305.03;;;7.02;100.00
21902;BME280;11115;46.038;14.612;2023-04-01T05:32:32;97226.63;;;6.51;100.00
21902;BME280;11115;46.038;14.612;2023-04-01T05:35:05;97301.97;;;7.04;100.00
21902;BME280;11115;46.038;14.612;2023-04-01T05:37:38;97303.03;;;6.94;100.00
21902;BME280;11115;46.038;14.612;2023-04-01T05:40:09;97304.41;;;7.05;100.00
21902;BME280;11115;46.038;14.612;2023-04-01T05:42:53;97300.34;;;7.03;100.00
21902;BME280;11115;46.038;14.612;2023-04-01T05:45:23;97305.41;;;7.09;100.00
21902;BME280;11115;46.038;14.612;2023-04-01T05:48:25;97308.28;;;7.04;100.00
21902;BME280;11115;46.038;14.612;2023-04-01T05:50:59;97316.78;;;7.16;100.00
21902;BME280;11115;46.038;14.612;2023-04-01T05:53:30;97323.41;;;7.15;100.00
21902;BME280;11115;46.038;14.612;2023-04-01T05:56:24;97336.03;;;7.16;100.00
21902;BME280;11115;46.038;14.612;2023-04-01T05:58:54;97353.13;;;7.36;100.00
21902;BME280;11115;46.038;14.612;2023-04-01T06:01:25;97338.25;;;7.37;100.00
21902;BME280;11115;46.038;14.612;2023-04-01T06:03:57;97343.34;;;7.21;100.00
21902;BME280;11115;46.038;14.612;2023-04-01T06:06:32;97338.56;;;7.35;100.00
21902;BME280;11115;46.038;14.612;2023-04-01T06:09:40;97327.25;;;7.37;100.00
21902;BME280;11115;46.038;14.612;2023-04-01T06:12:47;97332.94;;;7.49;100.00
21902;BME280;11115;46.038;14.612;2023-04-01T06:15:54;97319.69;;;7.51;100.00
21902;BME280;11115;46.038;14.612;2023-04-01T06:31:20;97333.00;;;7.57;100.00
21902;BME280;11115;46.038;14.612;2023-04-01T06:46:15;97349.06;;;7.64;100.00
21902;BME280;11115;46.038;14.612;2023-04-01T06:52:22;97349.94;;;7.82;100.00
21902;BME280;11115;46.038;14.612;2023-04-01T06:56:24;97351.28;;;7.93;100.00
21902;BME280;11115;46.038;14.612;2023-04-01T06:59:30;97361.53;;;8.10;100.00
21902;BME280;11115;46.038;14.612;2023-04-01T07:02:50;97365.91;;;8.19;100.00
21902;BME280;11115;46.038;14.612;2023-04-01T07:05:31;97371.75;;;8.27;100.00
21902;BME280;11115;46.038;14.612;2023-04-01T07:08:06;97368.44;;;8.38;100.00
21902;BME280;11115;46.038;14.612;2023-04-01T07:11:05;97362.25;;;8.41;100.00
21902;BME280;11115;46.038;14.612;2023-04-01T07:16:58;97361.47;;;8.41;100.00
21902;BME280;11115;46.038;14.612;2023-04-01T07:20:17;97366.00;;;8.37;100.00
21902;BME280;11115;46.038;14.612;2023-04-01T07:22:54;97361.28;;;8.46;100.00
21902;BME280;11115;46.038;14.612;2023-04-01T07:25:43;97345.44;;;8.60;100.00
21902;BME280;11115;46.038;14.612;2023-04-01T07:28:32;97348.69;;;8.88;100.00
21902;BME280;11115;46.038;14.612;2023-04-01T07:34:28;97374.00;;;8.90;100.00
21902;BME280;11115;46.038;14.612;2023-04-01T07:44:26;97381.34;;;9.59;100.00
21902;BME280;11115;46.038;14.612;2023-04-01T07:51:17;97373.59;;;9.35;100.00
21902;BME280;11115;46.038;14.612;2023-04-01T07:54:22;97367.81;;;9.10;100.00
21902;BME280;11115;46.038;14.612;2023-04-01T07:57:15;97374.75;;;9.34;100.00
21902;BME280;11115;46.038;14.612;2023-04-01T08:00:12;97377.03;;;9.15;100.00
21902;BME280;11115;46.038;14.612;2023-04-01T08:06:12;97374.44;;;9.18;100.00
21902;BME280;11115;46.038;14.612;2023-04-01T08:13:03;97375.75;;;9.29;100.00
21902;BME280;11115;46.038;14.612;2023-04-01T08:22:09;97378.56;;;9.59;100.00
21902;BME280;11115;46.038;14.612;2023-04-01T08:25:04;97381.81;;;9.61;100.00
21902;BME280;11115;46.038;14.612;2023-04-01T08:27:43;97381.47;;;9.71;100.00
21902;BME280;11115;46.038;14.612;2023-04-01T08:30:40;97374.19;;;9.66;100.00
21902;BME280;11115;46.038;14.612;2023-04-01T08:33:37;97367.19;;;9.69;100.00
21902;BME280;11115;46.038;14.612;2023-04-01T08:36:32;97363.50;;;9.94;100.00
21902;BME280;11115;46.038;14.612;2023-04-01T08:39:24;97372.34;;;9.79;100.00
21902;BME280;11115;46.038;14.612;2023-04-01T08:45:29;97374.81;;;10.40;100.00
21902;BME280;11115;46.038;14.612;2023-04-01T08:51:55;97363.16;;;10.63;100.00
21902;BME280;11115;46.038;14.612;2023-04-01T09:29:09;97363.91;;;11.27;100.00
21902;BME280;11115;46.038;14.612;2023-04-01T09:38:30;97367.84;;;11.71;100.00
21902;BME280;11115;46.038;14.612;2023-04-01T09:41:20;97359.28;;;11.76;100.00
21902;BME280;11115;46.038;14.612;2023-04-01T09:44:50;97360.53;;;12.36;100.00
21902;BME280;11115;46.038;14.612;2023-04-01T09:53:44;97355.22;;;12.06;100.00
21902;BME280;11115;46.038;14.612;2023-04-01T10:15:48;97351.47;;;11.78;100.00
21902;BME280;11115;46.038;14.612;2023-04-01T10:53:01;97344.25;;;12.22;100.00
21902;BME280;11115;46.038;14.612;2023-04-01T10:56:24;97333.56;;;12.49;100.00
21902;BME280;11115;46.038;14.612;2023-04-01T11:15:31;97314.97;;;12.89;100.00
21902;BME280;11115;46.038;14.612;2023-04-01T11:24:51;97298.44;;;13.64;100.00
21902;BME280;11115;46.038;14.612;2023-04-01T11:36:57;97272.72;;;15.27;100.00
21902;BME280;11115;46.038;14.612;2023-04-01T11:39:50;97287.44;;;15.93;100.00
21902;BME280;11115;46.038;14.612;2023-04-01T11:42:54;97270.31;;;15.48;100.00
21902;BME280;11115;46.038;14.612;2023-04-01T11:58:59;97246.59;;;16.87;100.00
21902;BME280;11115;46.038;14.612;2023-04-01T12:15:29;97219.59;;;18.31;100.00
21902;BME280;11115;46.038;14.612;2023-04-01T12:21:20;97198.53;;;19.70;100.00
21902;BME280;11115;46.038;14.612;2023-04-01T12:27:43;97199.69;;;19.48;100.00
21902;BME280;11115;46.038;14.612;2023-04-01T12:48:31;97176.56;;;23.53;61.93
21902;BME280;11115;46.038;14.612;2023-04-01T12:54:42;97173.72;;;23.26;61.35
21902;BME280;11115;46.038;14.612;2023-04-01T13:07:08;97152.06;;;23.73;59.01
21902;BME280;11115;46.038;14.612;2023-04-01T13:24:49;97141.19;;;30.63;36.95
21902;BME280;11115;46.038;14.612;2023-04-01T13:27:35;97130.03;;;31.01;34.09
21902;BME280;11115;46.038;14.612;2023-04-01T13:30:21;97142.56;;;31.31;34.51
21902;BME280;11115;46.038;14.612;2023-04-01T13:42:40;97137.16;;;20.11;93.38
21902;BME280;11115;46.038;14.612;2023-04-01T13:45:21;97133.19;;;19.77;100.00
21902;BME280;11115;46.038;14.612;2023-04-01T13:48:26;97127.16;;;19.35;100.00
21902;BME280;11115;46.038;14.612;2023-04-01T13:51:20;97111.88;;;19.01;100.00
21902;BME280;11115;46.038;14.612;2023-04-01T14:06:19;97113.03;;;17.40;100.00
21902;BME280;11115;46.038;14.612;2023-04-01T14:18:37;97115.34;;;16.90;100.00
21902;BME280;11115;46.038;14.612;2023-04-01T14:28:16;97104.03;;;16.76;100.00
21902;BME280;11115;46.038;14.612;2023-04-01T14:40:47;97110.97;;;16.56;100.00
21902;BME280;11115;46.038;14.612;2023-04-01T14:43:42;97112.97;;;16.22;100.00
21902;BME280;11115;46.038;14.612;2023-04-01T14:54:54;97118.31;;;16.67;100.00
21902;BME280;11115;46.038;14.612;2023-04-01T14:57:30;97114.63;;;16.60;100.00
21902;BME280;11115;46.038;14.612;2023-04-01T15:00:12;97116.03;;;16.47;100.00
21902;BME280;11115;46.038;14.612;2023-04-01T15:03:01;97113.47;;;16.31;100.00
21902;BME280;11115;46.038;14.612;2023-04-01T15:24:25;97090.88;;;15.57;100.00
21902;BME280;11115;46.038;14.612;2023-04-01T15:33:39;97078.81;;;15.00;100.00
21902;BME280;11115;46.038;14.612;2023-04-01T15:36:49;97065.94;;;15.14;100.00
21902;BME280;11115;46.038;14.612;2023-04-01T15:49:17;97131.25;;;14.52;100.00
21902;BME280;11115;46.038;14.612;2023-04-01T15:52:18;97145.75;;;14.07;100.00
21902;BME280;11115;46.038;14.612;2023-04-01T16:22:35;97149.53;;;12.41;100.00
21902;BME280;11115;46.038;14.612;2023-04-01T16:28:47;97196.13;;;10.56;100.00
21902;BME280;11115;46.038;14.612;2023-04-01T16:32:14;97230.44;;;10.13;100.00
21902;BME280;11115;46.038;14.612;2023-04-01T16:37:41;97250.25;;;9.65;100.00
21902;BME280;11115;46.038;14.612;2023-04-01T16:40:24;97251.53;;;9.67;100.00
21902;BME280;11115;46.038;14.612;2023-04-01T16:46:28;97262.16;;;9.10;100.00
21902;BME280;11115;46.038;14.612;2023-04-01T16:52:35;97290.09;;;8.31;100.00
21902;BME280;11115;46.038;14.612;2023-04-01T16:55:33;97314.44;;;8.46;100.00
21902;BME280;11115;46.038;14.612;2023-04-01T16:58:21;97333.75;;;8.80;100.00
21902;BME280;11115;46.038;14.612;2023-04-01T17:04:04;97322.88;;;8.93;100.00
21902;BME280;11115;46.038;14.612;2023-04-01T17:07:01;97296.44;;;8.83;100.00
21902;BME280;11115;46.038;14.612;2023-04-01T17:21:57;97328.69;;;9.64;100.00
21902;BME280;11115;46.038;14.612;2023-04-01T17:31:10;97319.91;;;9.70;100.00
21902;BME280;11115;46.038;14.612;2023-04-01T17:34:22;97325.72;;;9.78;100.00
21902;BME280;11115;46.038;14.612;2023-04-01T17:43:07;97331.50;;;9.55;100.00
21902;BME280;11115;46.038;14.612;2023-04-01T17:45:57;97325.50;;;9.53;100.00
21902;BME280;11115;46.038;14.612;2023-04-01T17:48:49;97326.63;;;9.52;100.00
21902;BME280;11115;46.038;14.612;2023-04-01T17:51:33;97329.91;;;9.46;100.00
21902;BME280;11115;46.038;14.612;2023-04-01T18:24:51;97341.59;;;9.42;100.00
21902;BME280;11115;46.038;14.612;2023-04-01T18:28:49;97340.63;;;9.38;100.00
21902;BME280;11115;46.038;14.612;2023-04-01T18:37:34;97356.13;;;8.62;100.00
21902;BME280;11115;46.038;14.612;2023-04-01T18:43:34;97376.25;;;8.79;100.00
21902;BME280;11115;46.038;14.612;2023-04-01T18:46:39;97376.75;;;8.73;100.00
21902;BME280;11115;46.038;14.612;2023-04-01T18:52:47;97367.63;;;8.46;100.00
21902;BME280;11115;46.038;14.612;2023-04-01T18:55:43;97381.97;;;8.26;100.00
21902;BME280;11115;46.038;14.612;2023-04-01T19:04:17;97385.16;;;8.59;100.00
21902;BME280;11115;46.038;14.612;2023-04-01T19:10:01;97396.91;;;7.85;100.00
21902;BME280;11115;46.038;14.612;2023-04-01T19:25:02;97406.25;;;8.15;100.00
21902;BME280;11115;46.038;14.612;2023-04-01T19:28:07;97406.41;;;8.10;100.00
21902;BME280;11115;46.038;14.612;2023-04-01T19:34:43;97399.06;;;7.57;100.00
21902;BME280;11115;46.038;14.612;2023-04-01T19:37:39;97411.41;;;7.69;100.00
21902;BME280;11115;46.038;14.612;2023-04-01T19:41:02;97419.84;;;7.41;100.00
21902;BME280;11115;46.038;14.612;2023-04-01T19:43:55;97412.72;;;7.18;100.00
21902;BME280;11115;46.038;14.612;2023-04-01T19:56:21;97424.97;;;7.34;100.00
21902;BME280;11115;46.038;14.612;2023-04-01T20:19:52;97395.72;;;7.16;100.00
21902;BME280;11115;46.038;14.612;2023-04-01T20:25:57;97423.94;;;6.85;100.00
21902;BME280;11115;46.038;14.612;2023-04-01T20:29:04;97423.88;;;6.77;100.00
21902;BME280;11115;46.038;14.612;2023-04-01T20:31:55;97422.28;;;6.98;100.00
21902;BME280;11115;46.038;14.612;2023-04-01T20:34:44;97427.78;;;6.98;100.00
21902;BME280;11115;46.038;14.612;2023-04-01T20:40:37;97439.63;;;6.85;100.00
21902;BME280;11115;46.038;14.612;2023-04-01T20:46:53;97449.34;;;6.68;100.00
21902;BME280;11115;46.038;14.612;2023-04-01T20:53:28;97447.88;;;6.85;100.00
21902;BME280;11115;46.038;14.612;2023-04-01T21:17:26;97479.44;;;6.74;100.00
21902;BME280;11115;46.038;14.612;2023-04-01T21:23:35;97491.00;;;6.62;100.00
21902;BME280;11115;46.038;14.612;2023-04-01T21:26:33;97497.00;;;6.64;100.00
21902;BME280;11115;46.038;14.612;2023-04-01T21:37:58;97520.91;;;6.22;100.00
21902;BME280;11115;46.038;14.612;2023-04-01T22:03:20;97541.66;;;6.28;100.00
21902;BME280;11115;46.038;14.612;2023-04-01T22:09:35;97562.19;;;6.03;100.00
21902;BME280;11115;46.038;14.612;2023-04-01T22:12:12;97544.69;;;6.13;100.00
21902;BME280;11115;46.038;14.612;2023-04-01T22:17:57;97551.00;;;6.27;100.00
21902;BME280;11115;46.038;14.612;2023-04-01T22:30:18;97535.63;;;6.13;100.00
21902;BME280;11115;46.038;14.612;2023-04-01T22:33:14;97467.25;;;5.84;100.00
21902;BME280;11115;46.038;14.612;2023-04-01T22:36:33;97469.78;;;5.80;100.00
21902;BME280;11115;46.038;14.612;2023-04-01T22:39:07;97536.50;;;5.94;100.00
21902;BME280;11115;46.038;14.612;2023-04-01T22:54:34;97535.66;;;5.47;100.00
21902;BME280;11115;46.038;14.612;2023-04-01T22:56:48;97535.44;;;5.44;100.00
21902;BME280;11115;46.038;14.612;2023-04-01T22:59:48;97542.66;;;5.54;100.00
21902;BME280;11115;46.038;14.612;2023-04-01T23:02:36;97541.94;;;5.48;100.00
21902;BME280;11115;46.038;14.612;2023-04-01T23:05:23;97537.81;;;5.32;100.00
21902;BME280;11115;46.038;14.612;2023-04-01T23:11:16;97536.25;;;5.44;100.00
21902;BME280;11115;46.038;14.612;2023-04-01T23:17:05;97527.56;;;5.37;100.00
21902;BME280;11115;46.038;14.612;2023-04-01T23:19:56;97543.34;;;5.45;100.00
21902;BME280;11115;46.038;14.612;2023-04-01T23:28:57;97553.63;;;4.78;100.00
21902;BME280;11115;46.038;14.612;2023-04-01T23:32:09;97558.44;;;4.68;100.00
21902;BME280;11115;46.038;14.612;2023-04-01T23:34:46;97559.09;;;4.36;100.00
21902;BME280;11115;46.038;14.612;2023-04-01T23:37:23;97551.06;;;4.87;100.00
21902;BME280;11115;46.038;14.612;2023-04-01T23:40:01;97559.06;;;4.83;100.00
21902;BME280;11115;46.038;14.612;2023-04-01T23:42:40;97562.16;;;4.77;100.00
21902;BME280;11115;46.038;14.612;2023-04-01T23:45:19;97556.38;;;4.78;100.00
21902;BME280;11115;46.038;14.612;2023-04-01T23:47:54;97543.78;;;4.77;100.00
21902;BME280;11115;46.038;14.612;2023-04-01T23:50:28;97568.91;;;4.84;100.00
21902;BME280;11115;46.038;14.612;2023-04-01T23:53:03;97569.00;;;4.98;100.00
21902;BME280;11115;46.038;14.612;2023-04-01T23:55:40;97570.88;;;5.03;100.00
21902;BME280;11115;46.038;14.612;2023-04-01T23:58:39;97563.75;;;5.02;100.00
